Honghai — XUBU8 — position and weather

sailwx.info

Track history (hours):
 
Tides and Currents Weather Stations Pressure Air Temp Water Temp Dewpoint Dewpoint Depression Visibility Wind Speed Wind Dir Waves Ship Positions

Honghai

Last reported at 2015-Jul-28 04:08 UTC. Time now 2015-Jul-28 05:53 UTC.
Position N 34°42' E 135°24'.

Length 72 m; draft 4 m.

Type: Cargo ship. MMSI: 515501000.

Date/timePositionNaut miles runAvg speedWind from/ knotsBaromVisibWave heightAir tempDewpointWater temp
2015-Jul-28 04:08N 34°42' E 135°24'0 0.0
2015-Jul-28 03:26N 34°42' E 135°24'0 0.0
2015-Jul-28 01:26N 34°42' E 135°24'0 0.0
2015-Jul-27 23:08N 34°42' E 135°24'0 0.0
2015-Jul-27 07:32N 34°42' E 135°24'0 0.0
2015-Jul-27 04:32N 34°42' E 135°24'0 0.0
2015-Jul-27 03:26N 34°42' E 135°24'0 0.0
2015-Jul-26 22:27N 34°42' E 135°24'4 3.7
2015-Jul-26 21:29N 34°40' E 135°20'0 0.1
2015-Jul-26 20:29N 34°40' E 135°20'0 0.0
2015-Jul-26 19:29N 34°40' E 135°20'0 0.0
2015-Jul-26 18:29N 34°40' E 135°20'0 0.0
2015-Jul-26 17:29N 34°40' E 135°20'0 0.0
2015-Jul-26 16:29N 34°40' E 135°20'0 0.0
2015-Jul-26 15:29N 34°40' E 135°20'0 0.0
2015-Jul-26 14:29N 34°40' E 135°20'0 0.0
2015-Jul-26 13:29N 34°40' E 135°20'0 0.0
2015-Jul-26 12:17N 34°40' E 135°20'0 0.1
2015-Jul-26 11:23N 34°40' E 135°20'0 0.0
2015-Jul-26 10:11N 34°40' E 135°20'0 0.0
2015-Jul-26 09:29N 34°40' E 135°20'0 0.0
2015-Jul-26 08:17N 34°40' E 135°20'0 0.0
2015-Jul-26 07:23N 34°40' E 135°20'0 0.0
2015-Jul-26 06:29N 34°40' E 135°20'0 0.0
2015-Jul-26 05:29N 34°40' E 135°20'0 0.0
2015-Jul-26 04:23N 34°40' E 135°20'0 0.1
2015-Jul-26 03:29N 34°40' E 135°20'0 0.0
2015-Jul-26 02:23N 34°40' E 135°20'0 0.0
2015-Jul-26 01:11N 34°40' E 135°20'0 0.1
2015-Jul-26 00:23N 34°40' E 135°20'0 0.1
2015-Jul-25 23:28N 34°40' E 135°20'0 0.0
2015-Jul-25 22:16N 34°40' E 135°20'0 0.0
2015-Jul-25 21:22N 34°40' E 135°20'0 0.1
2015-Jul-25 20:28N 34°40' E 135°20'0 0.0
2015-Jul-25 19:28N 34°40' E 135°20'0 0.0
2015-Jul-25 18:28N 34°40' E 135°20'0 0.0
2015-Jul-25 17:28N 34°40' E 135°20'0 0.1
2015-Jul-25 16:28N 34°40' E 135°20'0 0.0
2015-Jul-25 15:28N 34°40' E 135°20'0 0.0
2015-Jul-25 14:28N 34°40' E 135°20'0 0.0
2015-Jul-25 13:22N 34°40' E 135°20'0 0.0
2015-Jul-25 12:28N 34°40' E 135°20'0 0.0
2015-Jul-25 11:28N 34°40' E 135°20'0 0.0
2015-Jul-25 10:28N 34°40' E 135°20'0 0.0
2015-Jul-25 09:28N 34°40' E 135°20'0 0.0
2015-Jul-25 08:10N 34°40' E 135°20'0 0.0
2015-Jul-25 06:04N 34°40' E 135°20'0 0.0
2015-Jul-25 05:22N 34°40' E 135°20'0 0.0
2015-Jul-25 04:28N 34°40' E 135°20'0 0.0
2015-Jul-25 03:19N 34°40' E 135°20'0 0.0
2015-Jul-25 02:31N 34°40' E 135°20'0 0.0
2015-Jul-25 01:25N 34°40' E 135°20'0 0.0
2015-Jul-25 00:25N 34°40' E 135°20'0 0.0
2015-Jul-24 23:25N 34°40' E 135°20'0 0.0
2015-Jul-24 22:31N 34°40' E 135°20'0 0.0
2015-Jul-24 21:31N 34°40' E 135°20'0 0.0
2015-Jul-24 20:31N 34°40' E 135°20'0 0.0
2015-Jul-24 19:25N 34°40' E 135°20'0 0.0
2015-Jul-24 18:31N 34°40' E 135°20'0 0.1
2015-Jul-24 17:31N 34°40' E 135°20'0 0.1
2015-Jul-24 16:31N 34°40' E 135°20'0 0.3
2015-Jul-24 15:33N 34°40' E 135°20'10 9.6
2015-Jul-24 14:34N 34°35' E 135°10'  
2015-Jul-21 16:33N 30°37' E 122°53'57 9.1
2015-Jul-21 10:19N 29°42' E 122°36'  
Track history (hours):
 
Tides and Currents Weather Stations Pressure Air Temp Water Temp Dewpoint Dewpoint Depression Visibility Wind Speed Wind Dir Waves Ship Positions

Honghai

Last reported at 2015-Jul-28 04:08 UTC. Time now 2015-Jul-28 05:53 UTC.
Position N 34°42' E 135°24'.

Length 72 m; draft 4 m.

Type: Cargo ship. MMSI: 515501000.

Date/timePositionNaut miles runAvg speedWind from/ knotsBaromVisibWave heightAir tempDewpointWater temp
2015-Jul-28 04:08N 34°42' E 135°24'0 0.0
2015-Jul-28 03:26N 34°42' E 135°24'0 0.0
2015-Jul-28 01:26N 34°42' E 135°24'0 0.0
2015-Jul-27 23:08N 34°42' E 135°24'0 0.0
2015-Jul-27 07:32N 34°42' E 135°24'0 0.0
2015-Jul-27 04:32N 34°42' E 135°24'0 0.0
2015-Jul-27 03:26N 34°42' E 135°24'0 0.0
2015-Jul-26 22:27N 34°42' E 135°24'4 3.7
2015-Jul-26 21:29N 34°40' E 135°20'0 0.1
2015-Jul-26 20:29N 34°40' E 135°20'0 0.0
2015-Jul-26 19:29N 34°40' E 135°20'0 0.0
2015-Jul-26 18:29N 34°40' E 135°20'0 0.0
2015-Jul-26 17:29N 34°40' E 135°20'0 0.0
2015-Jul-26 16:29N 34°40' E 135°20'0 0.0
2015-Jul-26 15:29N 34°40' E 135°20'0 0.0
2015-Jul-26 14:29N 34°40' E 135°20'0 0.0
2015-Jul-26 13:29N 34°40' E 135°20'0 0.0
2015-Jul-26 12:17N 34°40' E 135°20'0 0.1
2015-Jul-26 11:23N 34°40' E 135°20'0 0.0
2015-Jul-26 10:11N 34°40' E 135°20'0 0.0
2015-Jul-26 09:29N 34°40' E 135°20'0 0.0
2015-Jul-26 08:17N 34°40' E 135°20'0 0.0
2015-Jul-26 07:23N 34°40' E 135°20'0 0.0
2015-Jul-26 06:29N 34°40' E 135°20'0 0.0
2015-Jul-26 05:29N 34°40' E 135°20'0 0.0
2015-Jul-26 04:23N 34°40' E 135°20'0 0.1
2015-Jul-26 03:29N 34°40' E 135°20'0 0.0
2015-Jul-26 02:23N 34°40' E 135°20'0 0.0
2015-Jul-26 01:11N 34°40' E 135°20'0 0.1
2015-Jul-26 00:23N 34°40' E 135°20'0 0.1
2015-Jul-25 23:28N 34°40' E 135°20'0 0.0
2015-Jul-25 22:16N 34°40' E 135°20'0 0.0
2015-Jul-25 21:22N 34°40' E 135°20'0 0.1
2015-Jul-25 20:28N 34°40' E 135°20'0 0.0
2015-Jul-25 19:28N 34°40' E 135°20'0 0.0
2015-Jul-25 18:28N 34°40' E 135°20'0 0.0
2015-Jul-25 17:28N 34°40' E 135°20'0 0.1
2015-Jul-25 16:28N 34°40' E 135°20'0 0.0
2015-Jul-25 15:28N 34°40' E 135°20'0 0.0
2015-Jul-25 14:28N 34°40' E 135°20'0 0.0
2015-Jul-25 13:22N 34°40' E 135°20'0 0.0
2015-Jul-25 12:28N 34°40' E 135°20'0 0.0
2015-Jul-25 11:28N 34°40' E 135°20'0 0.0
2015-Jul-25 10:28N 34°40' E 135°20'0 0.0
2015-Jul-25 09:28N 34°40' E 135°20'0 0.0
2015-Jul-25 08:10N 34°40' E 135°20'0 0.0
2015-Jul-25 06:04N 34°40' E 135°20'0 0.0
2015-Jul-25 05:22N 34°40' E 135°20'0 0.0
2015-Jul-25 04:28N 34°40' E 135°20'0 0.0
2015-Jul-25 03:19N 34°40' E 135°20'0 0.0
2015-Jul-25 02:31N 34°40' E 135°20'0 0.0
2015-Jul-25 01:25N 34°40' E 135°20'0 0.0
2015-Jul-25 00:25N 34°40' E 135°20'0 0.0
2015-Jul-24 23:25N 34°40' E 135°20'0 0.0
2015-Jul-24 22:31N 34°40' E 135°20'0 0.0
2015-Jul-24 21:31N 34°40' E 135°20'0 0.0
2015-Jul-24 20:31N 34°40' E 135°20'0 0.0
2015-Jul-24 19:25N 34°40' E 135°20'0 0.0
2015-Jul-24 18:31N 34°40' E 135°20'0 0.1
2015-Jul-24 17:31N 34°40' E 135°20'0 0.1
2015-Jul-24 16:31N 34°40' E 135°20'0 0.3
2015-Jul-24 15:33N 34°40' E 135°20'10 9.6
2015-Jul-24 14:34N 34°35' E 135°10'  
2015-Jul-21 16:33N 30°37' E 122°53'57 9.1
2015-Jul-21 10:19N 29°42' E 122°36'  

Dump ship's entire track history